Time;durP1;ratioP1;P1;durP2;ratioP2;P2;SDS_P1;SDS_P2;PMS_P1;PMS_P2;Temp;Humidity;BMP_temperature;BMP_pressure;BME280_temperature;BME280_humidity;BME280_pressure;Samples;Min_cycle;Max_cycle;Signal;HPM_P1;HPM_P2
2021/03/04 00:00:33;;;;;;;36.60;23.85;;;6.50;90.00;;;;;;5055736;28;20211;-73
2021/03/04 00:03:01;;;;;;;45.45;26.50;;;6.70;89.50;;;;;;5056118;28;20246;-71
2021/03/04 00:05:28;;;;;;;41.78;23.92;;;6.70;89.50;;;;;;5054901;28;20394;-71
2021/03/04 00:07:55;;;;;;;41.97;24.48;;;6.90;88.70;;;;;;5056948;28;20222;-71
2021/03/04 00:10:26;;;;;;;39.28;24.27;;;6.90;88.30;;;;;;5056329;28;20325;-71
2021/03/04 00:12:53;;;;;;;36.00;24.30;;;6.80;88.50;;;;;;5056549;28;20254;-72
2021/03/04 00:15:23;;;;;;;37.83;24.27;;;6.80;89.10;;;;;;5055456;28;20639;-70
2021/03/04 00:17:50;;;;;;;39.95;24.83;;;6.90;88.90;;;;;;5057035;28;20234;-71
2021/03/04 00:20:20;;;;;;;38.38;21.75;;;6.90;88.40;;;;;;5052930;28;20211;-70
2021/03/04 00:22:47;;;;;;;35.08;22.95;;;7.00;87.90;;;;;;5055536;28;20395;-70
2021/03/04 00:25:15;;;;;;;37.55;24.40;;;7.00;87.60;;;;;;5056549;28;20231;-72
2021/03/04 00:27:41;;;;;;;39.55;24.90;;;7.10;87.60;;;;;;5056137;28;20207;-71
2021/03/04 00:30:10;;;;;;;36.40;22.52;;;7.10;87.50;;;;;;5056661;28;20218;-70
2021/03/04 00:32:37;;;;;;;33.85;23.95;;;7.00;87.40;;;;;;5056014;28;20210;-72
2021/03/04 00:35:06;;;;;;;36.47;22.10;;;7.20;86.80;;;;;;5056700;28;20204;-70
2021/03/04 00:37:32;;;;;;;39.65;24.30;;;7.20;86.70;;;;;;5055705;28;20525;-70
2021/03/04 00:40:01;;;;;;;38.03;23.10;;;7.10;86.80;;;;;;5057685;28;20395;-71
2021/03/04 00:42:28;;;;;;;52.30;26.77;;;7.30;86.20;;;;;;5059505;28;20367;-70
2021/03/04 00:44:54;;;;;;;41.38;23.73;;;7.20;85.90;;;;;;5059951;28;20233;-71
2021/03/04 00:47:21;;;;;;;35.70;23.42;;;7.10;86.20;;;;;;5059870;28;20219;-71
2021/03/04 00:49:47;;;;;;;42.70;24.05;;;7.00;86.60;;;;;;5058853;28;20207;-70
2021/03/04 00:52:15;;;;;;;33.70;21.55;;;6.90;87.10;;;;;;5059537;28;20195;-71
2021/03/04 00:54:41;;;;;;;35.60;22.73;;;6.90;87.30;;;;;;5060104;28;20214;-71
2021/03/04 00:57:08;;;;;;;31.73;20.92;;;6.60;88.40;;;;;;5059013;28;20787;-71
2021/03/04 00:59:34;;;;;;;37.35;22.52;;;6.50;88.70;;;;;;5059333;28;20240;-70
2021/03/04 01:02:01;;;;;;;37.88;22.95;;;6.50;88.80;;;;;;5059720;28;20801;-71
2021/03/04 01:04:28;;;;;;;37.30;20.25;;;6.50;88.80;;;;;;5059379;28;20231;-71
2021/03/04 01:06:54;;;;;;;33.70;21.20;;;6.30;89.20;;;;;;5058055;28;20234;-70
2021/03/04 01:09:21;;;;;;;33.35;21.02;;;6.40;89.50;;;;;;5073333;28;20437;-70
2021/03/04 01:11:47;;;;;;;37.05;21.88;;;6.20;90.00;;;;;;5058661;28;20208;-71
2021/03/04 01:14:14;;;;;;;31.85;20.90;;;6.10;90.00;;;;;;5058862;28;20239;-72
2021/03/04 01:16:40;;;;;;;35.85;20.55;;;6.00;90.10;;;;;;5058947;28;20218;-71
2021/03/04 01:19:07;;;;;;;31.83;20.95;;;6.10;90.10;;;;;;5050770;28;20276;-70
2021/03/04 01:21:34;;;;;;;34.15;20.05;;;6.10;90.10;;;;;;5058914;28;20211;-70
2021/03/04 01:24:05;;;;;;;37.72;21.90;;;6.00;90.10;;;;;;5057646;28;20505;-72
2021/03/04 01:26:32;;;;;;;34.67;21.02;;;6.00;90.20;;;;;;5057741;28;20230;-71
2021/03/04 01:28:58;;;;;;;42.92;21.15;;;5.90;90.40;;;;;;5058385;28;20217;-71
2021/03/04 01:31:25;;;;;;;30.20;19.90;;;5.90;90.40;;;;;;5058113;28;20221;-71
2021/03/04 01:33:51;;;;;;;43.05;18.02;;;5.80;90.50;;;;;;5058867;28;20512;-72
2021/03/04 01:36:18;;;;;;;33.40;18.92;;;5.80;90.40;;;;;;5058431;28;20204;-70
2021/03/04 01:38:45;;;;;;;38.03;20.20;;;5.90;90.40;;;;;;5058719;28;20239;-71
2021/03/04 01:41:11;;;;;;;31.48;18.48;;;5.80;90.20;;;;;;5058491;28;20550;-70
2021/03/04 01:43:38;;;;;;;30.25;17.48;;;5.80;90.20;;;;;;5058657;28;20215;-71
2021/03/04 01:46:05;;;;;;;40.03;19.40;;;5.80;90.20;;;;;;5059080;28;20216;-71
2021/03/04 01:48:47;;;;;;;28.38;17.73;;;5.70;90.30;;;;;;5059339;28;20204;-71
2021/03/04 01:51:14;;;;;;;23.60;17.48;;;5.70;90.30;;;;;;5065011;28;20265;-71
2021/03/04 01:53:41;;;;;;;37.78;17.27;;;5.80;90.20;;;;;;5057663;28;20223;-71
2021/03/04 01:56:09;;;;;;;32.70;16.45;;;5.90;90.00;;;;;;5058670;28;20253;-71
2021/03/04 01:58:36;;;;;;;27.30;16.15;;;6.00;89.80;;;;;;5058845;28;20238;-70
2021/03/04 02:01:03;;;;;;;28.90;17.60;;;5.90;89.70;;;;;;5054396;28;20199;-71
2021/03/04 02:03:31;;;;;;;23.95;16.27;;;5.90;89.80;;;;;;5051957;28;20540;-70
2021/03/04 02:05:58;;;;;;;30.23;16.80;;;5.90;89.70;;;;;;5058861;28;20212;-72
2021/03/04 02:08:41;;;;;;;31.45;16.33;;;5.80;90.10;;;;;;5058002;28;20223;-71
2021/03/04 02:11:14;;;;;;;27.83;15.43;;;5.90;90.00;;;;;;5058270;28;20210;-70
2021/03/04 02:13:46;;;;;;;34.38;16.17;;;5.90;89.90;;;;;;5070687;28;20235;-71
2021/03/04 02:16:30;;;;;;;28.92;17.17;;;5.90;90.10;;;;;;5057977;28;20195;-70
2021/03/04 02:19:38;;;;;;;26.40;14.70;;;5.90;90.00;;;;;;5058477;28;20277;-72
2021/03/04 02:22:27;;;;;;;23.77;15.43;;;5.90;90.00;;;;;;5053908;28;20204;-71
2021/03/04 02:25:10;;;;;;;24.48;15.52;;;5.90;90.10;;;;;;5051218;28;20510;-70
2021/03/04 02:27:38;;;;;;;23.13;15.48;;;5.90;90.20;;;;;;5057685;28;20719;-70
2021/03/04 02:30:13;;;;;;;22.30;15.32;;;5.90;90.40;;;;;;5057382;28;20211;-70
2021/03/04 02:32:46;;;;;;;24.88;16.95;;;5.80;90.40;;;;;;5057295;28;20248;-70
2021/03/04 02:35:28;;;;;;;26.80;16.02;;;5.80;90.50;;;;;;5058193;28;20273;-73
2021/03/04 02:37:58;;;;;;;36.42;18.17;;;5.90;90.50;;;;;;5057496;28;20208;-72
2021/03/04 02:40:27;;;;;;;27.77;15.77;;;5.90;90.40;;;;;;5056822;28;20215;-71
2021/03/04 02:42:55;;;;;;;28.15;16.65;;;5.90;90.50;;;;;;5057636;28;20302;-71
2021/03/04 02:45:24;;;;;;;21.05;13.85;;;5.90;90.60;;;;;;5057412;28;20821;-72
2021/03/04 02:47:50;;;;;;;31.67;19.27;;;5.90;90.70;;;;;;5057620;28;20211;-71
2021/03/04 02:50:18;;;;;;;25.13;15.80;;;5.80;90.80;;;;;;5057161;28;20203;-72
2021/03/04 02:52:47;;;;;;;35.22;20.83;;;5.90;90.90;;;;;;5058125;28;20212;-71
2021/03/04 02:55:15;;;;;;;45.10;21.27;;;5.90;90.90;;;;;;5057479;28;20289;-71
2021/03/04 02:57:44;;;;;;;30.17;17.23;;;5.80;91.10;;;;;;5057571;28;20211;-72
2021/03/04 03:00:15;;;;;;;29.92;17.23;;;5.80;91.10;;;;;;5057126;28;20222;-70
2021/03/04 03:02:44;;;;;;;28.35;16.92;;;5.90;91.20;;;;;;5056096;28;20212;-71
2021/03/04 03:05:13;;;;;;;29.70;16.83;;;5.90;91.00;;;;;;5057306;28;20275;-70
2021/03/04 03:07:42;;;;;;;29.75;16.60;;;5.90;91.10;;;;;;5056075;28;20208;-72
2021/03/04 03:10:10;;;;;;;28.35;16.55;;;5.80;91.40;;;;;;5057326;28;20271;-71
2021/03/04 03:12:40;;;;;;;31.10;18.75;;;5.80;91.70;;;;;;5058132;28;20262;-71
2021/03/04 03:15:09;;;;;;;26.58;17.00;;;5.80;91.50;;;;;;5063771;28;20206;-72
2021/03/04 03:17:36;;;;;;;40.75;15.77;;;5.90;91.50;;;;;;5068588;28;20210;-71
2021/03/04 03:20:12;;;;;;;30.13;17.98;;;5.80;91.60;;;;;;5045927;28;20537;-70
2021/03/04 03:22:39;;;;;;;26.33;17.63;;;5.80;91.70;;;;;;5056509;28;20207;-71
2021/03/04 03:25:08;;;;;;;25.85;17.33;;;5.60;92.10;;;;;;5057064;28;20207;-70
2021/03/04 03:27:36;;;;;;;25.92;17.05;;;5.60;92.30;;;;;;5056538;28;20221;-71
2021/03/04 03:30:28;;;;;;;29.00;17.15;;;5.60;92.30;;;;;;5070827;28;20218;-70
2021/03/04 03:33:07;;;;;;;26.23;17.45;;;5.60;92.50;;;;;;5045449;28;20207;-69
2021/03/04 03:35:36;;;;;;;31.38;18.63;;;5.60;92.50;;;;;;5056590;28;20207;-69
2021/03/04 03:38:04;;;;;;;34.92;19.90;;;5.70;92.30;;;;;;5056238;28;20211;-71
2021/03/04 03:40:34;;;;;;;25.90;17.00;;;4.60;92.20;;;;;;5057057;28;20240;-72
2021/03/04 03:43:06;;;;;;;28.35;18.05;;;5.60;92.60;;;;;;5065037;28;20212;-70
2021/03/04 03:45:35;;;;;;;28.98;18.27;;;5.50;92.70;;;;;;5062067;28;20249;-70
2021/03/04 03:48:06;;;;;;;24.42;16.60;;;5.50;92.70;;;;;;5070062;28;20238;-71
2021/03/04 03:50:33;;;;;;;27.45;19.70;;;5.50;92.80;;;;;;5056992;28;20213;-72
2021/03/04 03:53:01;;;;;;;33.30;19.80;;;5.50;93.10;;;;;;5056778;28;20454;-70
2021/03/04 03:55:29;;;;;;;32.35;18.65;;;5.50;93.00;;;;;;5044788;28;20350;-71
2021/03/04 03:57:58;;;;;;;32.50;19.73;;;5.50;93.00;;;;;;5069090;28;20214;-70
2021/03/04 04:00:26;;;;;;;27.60;19.10;;;5.50;92.90;;;;;;5051849;28;20254;-70
2021/03/04 04:03:00;;;;;;;32.78;20.05;;;5.60;93.00;;;;;;5053287;28;20224;-70
2021/03/04 04:05:27;;;;;;;31.60;19.30;;;5.60;92.80;;;;;;5052363;28;20211;-71
2021/03/04 04:07:56;;;;;;;30.05;20.23;;;5.50;93.10;;;;;;5052691;28;20206;-70
2021/03/04 04:10:27;;;;;;;25.92;18.67;;;5.50;93.20;;;;;;5056403;28;20214;-70
2021/03/04 04:12:54;;;;;;;32.78;19.95;;;5.50;93.30;;;;;;5056512;28;20249;-71
2021/03/04 04:15:21;;;;;;;31.33;21.10;;;5.50;93.40;;;;;;5060558;28;20215;-71
2021/03/04 04:17:49;;;;;;;38.78;20.65;;;5.50;93.50;;;;;;5060780;28;20208;-71
2021/03/04 04:20:20;;;;;;;27.23;18.50;;;5.40;93.90;;;;;;5063977;28;20381;-70
2021/03/04 04:22:48;;;;;;;40.67;23.42;;;5.20;94.20;;;;;;5060445;28;20211;-70
2021/03/04 04:25:15;;;;;;;35.78;19.67;;;5.10;94.40;;;;;;5060050;28;20221;-71
2021/03/04 04:27:42;;;;;;;40.30;21.63;;;5.10;94.70;;;;;;5060256;28;20218;-70
2021/03/04 04:30:10;;;;;;;36.03;22.50;;;4.90;95.10;;;;;;5060259;28;20211;-70
2021/03/04 04:32:37;;;;;;;39.40;23.77;;;4.90;95.40;;;;;;5049116;28;20215;-71
2021/03/04 04:35:04;;;;;;;34.05;23.02;;;4.80;95.60;;;;;;5059640;28;20264;-71
2021/03/04 04:37:31;;;;;;;34.90;22.83;;;4.90;95.70;;;;;;5059714;28;20215;-70
2021/03/04 04:39:57;;;;;;;45.60;26.15;;;5.00;95.80;;;;;;5060293;28;20264;-71
2021/03/04 04:42:24;;;;;;;40.22;23.30;;;4.90;96.00;;;;;;5059132;28;20218;-71
2021/03/04 04:44:51;;;;;;;42.10;26.45;;;4.90;95.90;;;;;;5058280;28;20211;-70
2021/03/04 04:47:17;;;;;;;49.17;28.30;;;4.80;96.30;;;;;;5059142;28;20275;-71
2021/03/04 04:49:44;;;;;;;43.45;25.70;;;4.80;96.60;;;;;;5059932;28;20233;-70
2021/03/04 04:52:10;;;;;;;44.15;28.88;;;4.80;96.70;;;;;;5059543;28;20214;-70
2021/03/04 04:54:37;;;;;;;38.10;26.45;;;4.70;96.90;;;;;;5059357;28;20211;-70
2021/03/04 04:57:04;;;;;;;40.88;27.55;;;4.70;97.10;;;;;;5059461;28;20436;-71
2021/03/04 04:59:30;;;;;;;42.13;28.05;;;4.90;97.10;;;;;;5058544;28;20533;-69
2021/03/04 05:01:57;;;;;;;46.55;28.52;;;4.90;97.00;;;;;;5060020;28;20242;-71
2021/03/04 05:04:24;;;;;;;46.28;28.75;;;4.90;97.10;;;;;;5058644;28;20237;-70
2021/03/04 05:06:50;;;;;;;44.25;28.30;;;4.90;97.30;;;;;;5059586;28;20208;-71
2021/03/04 05:09:17;;;;;;;54.90;32.13;;;4.90;97.40;;;;;;5058992;28;20217;-71
2021/03/04 05:11:43;;;;;;;48.92;30.67;;;4.90;97.40;;;;;;5059625;28;20211;-71
2021/03/04 05:14:10;;;;;;;52.17;31.80;;;4.90;97.40;;;;;;5059066;28;20254;-71
2021/03/04 05:16:37;;;;;;;55.05;33.50;;;5.00;97.50;;;;;;5058797;28;20538;-71
2021/03/04 05:19:03;;;;;;;58.05;33.63;;;4.90;97.50;;;;;;5058891;28;20242;-71
2021/03/04 05:21:32;;;;;;;56.30;33.60;;;4.90;97.70;;;;;;5061196;28;20207;-71
2021/03/04 05:23:58;;;;;;;48.50;31.55;;;4.90;97.70;;;;;;5052529;28;20216;-70
2021/03/04 05:26:25;;;;;;;51.75;32.65;;;4.90;97.80;;;;;;5063988;28;20241;-69
2021/03/04 05:28:52;;;;;;;54.10;34.35;;;5.00;97.80;;;;;;5058754;28;20250;-70
2021/03/04 05:31:18;;;;;;;58.33;35.40;;;5.10;97.60;;;;;;5058665;28;20210;-72
2021/03/04 05:33:45;;;;;;;60.42;35.85;;;5.10;97.50;;;;;;5058758;28;20282;-71
2021/03/04 05:36:12;;;;;;;56.67;34.58;;;5.20;97.60;;;;;;5059327;28;20212;-70
2021/03/04 05:38:38;;;;;;;58.10;37.58;;;5.10;97.50;;;;;;5058734;28;20234;-69
2021/03/04 05:41:07;;;;;;;70.18;36.63;;;5.10;97.60;;;;;;5063181;28;20214;-72
2021/03/04 05:43:36;;;;;;;56.83;35.47;;;5.20;97.60;;;;;;5056789;28;20267;-71
2021/03/04 05:46:04;;;;;;;69.05;38.17;;;5.20;97.70;;;;;;5057453;28;20230;-70
2021/03/04 05:48:33;;;;;;;60.33;37.10;;;5.20;97.70;;;;;;5057900;28;20216;-70
2021/03/04 05:51:02;;;;;;;60.60;38.33;;;5.30;97.60;;;;;;5056716;28;20208;-71
2021/03/04 05:53:30;;;;;;;59.65;37.92;;;5.30;97.60;;;;;;5058124;28;20203;-72
2021/03/04 05:55:58;;;;;;;61.58;36.78;;;5.50;97.50;;;;;;5057914;28;20207;-71
2021/03/04 05:58:27;;;;;;;56.08;37.75;;;5.40;97.30;;;;;;5057569;28;20556;-71
2021/03/04 06:00:56;;;;;;;56.88;35.78;;;5.60;97.30;;;;;;5058021;28;20276;-70
2021/03/04 06:03:23;;;;;;;70.50;40.45;;;5.60;97.10;;;;;;5058272;28;20227;-71
2021/03/04 06:05:50;;;;;;;63.28;38.58;;;5.70;96.90;;;;;;5058224;28;20209;-69
2021/03/04 06:08:18;;;;;;;75.43;41.20;;;5.80;96.70;;;;;;5049881;28;20220;-69
2021/03/04 06:10:50;;;;;;;63.00;38.88;;;5.90;96.70;;;;;;5057568;28;20215;-72
2021/03/04 06:13:16;;;;;;;69.82;36.00;;;6.00;96.50;;;;;;5057887;28;20243;-70
2021/03/04 06:15:44;;;;;;;66.70;39.40;;;6.20;96.10;;;;;;5060401;28;20199;-71
2021/03/04 06:18:11;;;;;;;55.55;37.30;;;6.30;95.80;;;;;;5055476;28;20269;-71
2021/03/04 06:20:42;;;;;;;61.38;38.67;;;6.20;95.90;;;;;;5060080;28;20207;-73
2021/03/04 06:23:09;;;;;;;59.47;39.47;;;6.30;96.00;;;;;;5057852;28;20215;-71
2021/03/04 06:25:37;;;;;;;56.40;36.60;;;6.20;96.00;;;;;;5046762;28;20210;-70
2021/03/04 06:28:05;;;;;;;62.70;40.22;;;6.40;96.00;;;;;;5056850;28;20548;-71
2021/03/04 06:30:40;;;;;;;59.88;39.63;;;6.50;95.60;;;;;;5055941;28;20203;-70
2021/03/04 06:33:08;;;;;;;60.80;38.90;;;6.70;95.50;;;;;;5046327;28;20214;-71
2021/03/04 06:35:40;;;;;;;63.30;38.10;;;6.80;95.10;;;;;;5024498;28;20265;-71
2021/03/04 06:38:16;;;;;;;61.13;40.72;;;6.80;95.00;;;;;;5004961;28;20805;-70
2021/03/04 06:40:43;;;;;;;63.80;40.63;;;6.80;94.90;;;;;;5072196;28;20203;-71
2021/03/04 06:43:27;;;;;;;62.28;41.42;;;6.70;95.30;;;;;;5056966;28;20253;-70
2021/03/04 06:46:05;;;;;;;74.40;40.75;;;7.00;95.10;;;;;;5057067;28;20207;-70
2021/03/04 06:48:32;;;;;;;61.20;40.05;;;7.30;94.40;;;;;;5057250;28;20211;-72
2021/03/04 06:51:02;;;;;;;65.43;38.65;;;7.50;93.80;;;;;;5054283;28;20204;-71
2021/03/04 06:53:30;;;;;;;61.67;38.28;;;7.80;93.50;;;;;;5057091;28;20206;-72
2021/03/04 06:56:05;;;;;;;59.88;40.33;;;8.00;93.10;;;;;;5056171;28;20223;-70
2021/03/04 06:58:35;;;;;;;56.70;39.90;;;8.20;92.50;;;;;;5055662;28;20239;-72
2021/03/04 07:01:08;;;;;;;65.20;40.90;;;8.30;92.30;;;;;;5056471;28;20224;-71
2021/03/04 07:03:43;;;;;;;60.97;41.45;;;8.40;92.00;;;;;;5056648;28;20324;-70
2021/03/04 07:06:33;;;;;;;56.75;39.47;;;9.20;91.80;;;;;;5054693;28;20518;-71
2021/03/04 07:09:00;;;;;;;61.13;38.95;;;8.70;91.50;;;;;;5055177;28;20289;-73
2021/03/04 07:11:27;;;;;;;68.63;42.60;;;8.90;91.00;;;;;;5056453;28;20211;-72
2021/03/04 07:13:54;;;;;;;60.40;40.55;;;9.00;90.90;;;;;;5058865;28;20248;-70
2021/03/04 07:16:27;;;;;;;59.75;39.83;;;9.20;90.70;;;;;;5055731;28;20279;-72
2021/03/04 07:18:59;;;;;;;63.25;39.38;;;9.50;90.20;;;;;;5056415;28;20259;-71
2021/03/04 07:21:28;;;;;;;66.80;40.55;;;9.70;89.40;;;;;;5059245;28;20214;-72
2021/03/04 07:23:55;;;;;;;62.75;42.28;;;9.90;88.30;;;;;;5056576;28;20205;-71
2021/03/04 07:26:22;;;;;;;55.85;37.50;;;10.10;87.50;;;;;;5055898;28;20538;-72
2021/03/04 07:28:50;;;;;;;64.18;40.53;;;10.40;86.80;;;;;;5056237;28;20584;-71
2021/03/04 07:31:17;;;;;;;65.07;40.85;;;10.60;86.20;;;;;;5056141;28;20274;-72
2021/03/04 07:33:47;;;;;;;56.42;37.53;;;11.00;84.10;;;;;;5056569;28;20471;-72
2021/03/04 07:36:18;;;;;;;53.95;39.13;;;11.30;83.00;;;;;;5054726;28;20210;-72
2021/03/04 07:38:55;;;;;;;59.58;41.08;;;11.80;80.40;;;;;;5056605;28;20268;-72
2021/03/04 07:41:34;;;;;;;62.65;43.25;;;12.40;78.30;;;;;;5055647;28;20212;-71
2021/03/04 07:44:03;;;;;;;59.40;42.22;;;12.90;76.30;;;;;;5056662;28;20242;-72
2021/03/04 07:46:35;;;;;;;54.95;42.40;;;13.10;74.50;;;;;;5056583;28;20302;-72
2021/03/04 07:49:08;;;;;;;59.78;40.58;;;13.20;74.30;;;;;;5077668;28;20206;-72
2021/03/04 07:51:47;;;;;;;56.10;40.97;;;13.10;74.20;;;;;;5067039;28;20203;-72
2021/03/04 07:54:15;;;;;;;58.83;40.45;;;12.90;75.30;;;;;;5057322;28;20242;-71
2021/03/04 07:56:42;;;;;;;58.33;42.88;;;13.00;75.10;;;;;;5057789;28;20567;-71
2021/03/04 07:59:16;;;;;;;61.97;43.47;;;13.30;73.50;;;;;;5068447;28;20403;-75
2021/03/04 08:01:56;;;;;;;58.55;41.95;;;13.00;75.00;;;;;;5066562;28;20490;-72
2021/03/04 08:04:25;;;;;;;61.63;42.13;;;12.80;75.50;;;;;;5068515;28;20234;-74
2021/03/04 08:06:53;;;;;;;60.85;42.90;;;12.80;76.00;;;;;;5072111;28;20207;-72
2021/03/04 08:09:32;;;;;;;66.75;44.28;;;12.80;75.20;;;;;;5057427;28;20299;-72
2021/03/04 08:12:08;;;;;;;65.28;39.50;;;12.90;75.40;;;;;;5067585;28;20202;-71
2021/03/04 08:14:42;;;;;;;73.78;48.75;;;13.00;73.90;;;;;;5059994;28;20210;-73
2021/03/04 08:17:12;;;;;;;59.45;42.40;;;13.10;74.00;;;;;;5059388;28;20207;-73
2021/03/04 08:19:39;;;;;;;60.58;43.55;;;13.00;74.90;;;;;;5067202;28;20290;-73
2021/03/04 08:22:08;;;;;;;59.78;43.08;;;13.00;74.50;;;;;;5063658;28;20242;-72
2021/03/04 08:24:38;;;;;;;54.08;41.70;;;12.90;74.40;;;;;;5058414;28;20286;-73
2021/03/04 08:27:06;;;;;;;58.13;43.45;;;12.60;75.90;;;;;;5058473;28;20208;-72
2021/03/04 08:29:33;;;;;;;54.85;42.20;;;12.70;76.30;;;;;;5060456;28;20491;-71
2021/03/04 08:32:03;;;;;;;58.47;44.10;;;12.90;76.50;;;;;;5060428;28;20245;-72
2021/03/04 08:34:37;;;;;;;61.38;43.70;;;13.10;74.90;;;;;;5059451;28;20564;-72
2021/03/04 08:37:06;;;;;;;58.50;43.35;;;13.20;74.10;;;;;;5060951;28;20449;-71
2021/03/04 08:39:34;;;;;;;57.35;42.55;;;13.20;74.40;;;;;;5059767;28;20228;-73
2021/03/04 08:42:03;;;;;;;63.45;44.90;;;13.30;73.20;;;;;;5059684;28;20211;-72
2021/03/04 08:44:30;;;;;;;56.63;43.33;;;13.30;73.40;;;;;;5043058;28;20303;-75
2021/03/04 08:46:57;;;;;;;59.90;41.33;;;13.00;75.00;;;;;;5054455;28;20207;-71
2021/03/04 08:49:24;;;;;;;68.35;43.47;;;12.70;75.10;;;;;;5056413;28;20431;-76
2021/03/04 08:51:51;;;;;;;59.10;43.13;;;12.70;75.50;;;;;;5056470;28;20204;-72
2021/03/04 08:54:28;;;;;;;72.82;47.40;;;12.50;76.10;;;;;;5058562;28;20211;-75
2021/03/04 08:57:02;;;;;;;57.92;42.60;;;12.90;74.80;;;;;;5059292;28;20202;-73
2021/03/04 08:59:30;;;;;;;65.32;43.55;;;12.80;74.40;;;;;;5057462;28;20246;-73
2021/03/04 09:01:59;;;;;;;61.47;45.60;;;12.90;74.30;;;;;;5057369;28;20203;-75
2021/03/04 09:04:30;;;;;;;56.72;39.05;;;13.20;73.80;;;;;;5058833;28;20228;-72
2021/03/04 09:06:57;;;;;;;59.10;41.78;;;13.00;74.80;;;;;;5059223;28;20270;-71
2021/03/04 09:09:26;;;;;;;63.05;41.75;;;12.80;74.40;;;;;;5057339;28;20359;-71
2021/03/04 09:11:57;;;;;;;60.92;41.38;;;12.70;74.00;;;;;;5057694;28;20219;-71
2021/03/04 09:14:26;;;;;;;57.17;41.65;;;13.10;73.50;;;;;;5059335;28;20204;-72
2021/03/04 09:16:54;;;;;;;54.97;41.30;;;13.40;72.80;;;;;;5059471;28;20195;-74
2021/03/04 09:19:39;;;;;;;56.45;37.63;;;13.10;72.30;;;;;;5058758;28;20266;-71
2021/03/04 09:22:13;;;;;;;53.45;40.63;;;12.90;72.60;;;;;;5040932;28;20206;-72
2021/03/04 09:24:48;;;;;;;54.45;39.60;;;12.70;74.00;;;;;;5056951;28;20493;-73
2021/03/04 09:27:21;;;;;;;50.47;35.40;;;12.30;74.00;;;;;;5072911;28;20207;-73
2021/03/04 09:29:48;;;;;;;57.53;38.95;;;12.20;74.20;;;;;;5056008;28;20474;-73
2021/03/04 09:32:14;;;;;;;54.13;37.17;;;12.30;74.20;;;;;;5057630;28;20238;-71
2021/03/04 09:34:45;;;;;;;53.88;36.65;;;12.10;75.60;;;;;;5053981;28;20215;-73
2021/03/04 09:37:23;;;;;;;57.80;38.20;;;11.80;75.50;;;;;;5056901;28;20217;-71
2021/03/04 09:39:52;;;;;;;47.85;37.05;;;11.80;76.10;;;;;;5051133;28;20233;-72
2021/03/04 09:42:35;;;;;;;61.72;37.08;;;11.60;77.00;;;;;;5057424;28;20265;-73
2021/03/04 09:45:09;;;;;;;61.67;37.70;;;11.50;77.20;;;;;;5062322;28;20222;-76
2021/03/04 09:47:44;;;;;;;52.30;36.75;;;11.60;77.30;;;;;;5055205;28;20241;-74
2021/03/04 09:50:26;;;;;;;54.42;37.10;;;11.70;77.00;;;;;;5062987;28;20542;-72
2021/03/04 09:52:59;;;;;;;55.38;38.38;;;11.90;76.30;;;;;;5063864;28;20206;-73
2021/03/04 09:55:26;;;;;;;50.00;36.35;;;12.00;76.60;;;;;;5057040;28;20246;-73
2021/03/04 09:57:53;;;;;;;59.92;39.17;;;11.90;78.40;;;;;;5057741;28;20239;-73
2021/03/04 10:00:22;;;;;;;62.63;39.88;;;12.00;77.10;;;;;;5057106;28;20557;-74
2021/03/04 10:02:53;;;;;;;55.40;40.40;;;12.00;78.10;;;;;;5056190;28;20207;-75
2021/03/04 10:05:26;;;;;;;63.78;39.55;;;12.10;79.10;;;;;;5058580;28;20386;-71
2021/03/04 10:07:57;;;;;;;63.22;41.53;;;12.20;77.40;;;;;;5058637;28;20268;-73
2021/03/04 10:10:23;;;;;;;55.05;42.50;;;12.10;79.00;;;;;;5056946;28;20320;-73
2021/03/04 10:12:55;;;;;;;59.10;43.22;;;12.10;78.60;;;;;;5054498;28;20240;-72
2021/03/04 10:15:40;;;;;;;63.58;44.58;;;12.20;78.30;;;;;;5054034;28;20213;-74
2021/03/04 10:18:15;;;;;;;67.40;45.80;;;12.30;78.80;;;;;;5057953;28;20227;-71
2021/03/04 10:20:47;;;;;;;65.72;46.65;;;12.20;79.20;;;;;;5051982;28;20235;-72
2021/03/04 10:23:18;;;;;;;63.45;43.63;;;12.10;77.80;;;;;;5045950;28;20478;-71
2021/03/04 10:25:45;;;;;;;61.65;45.17;;;12.10;78.40;;;;;;5052898;28;20227;-73
2021/03/04 10:28:11;;;;;;;65.53;42.45;;;12.00;78.80;;;;;;5048743;28;20207;-72
2021/03/04 10:30:38;;;;;;;60.25;43.38;;;11.90;78.50;;;;;;5068299;28;20497;-71
2021/03/04 10:33:06;;;;;;;64.22;45.42;;;11.90;78.20;;;;;;5056222;28;20567;-72
2021/03/04 10:35:37;;;;;;;55.85;38.17;;;11.90;78.70;;;;;;5056622;28;20214;-71
2021/03/04 10:38:07;;;;;;;62.50;41.45;;;12.00;77.30;;;;;;5057254;28;20381;-71
2021/03/04 10:40:34;;;;;;;56.92;40.03;;;11.90;77.50;;;;;;5053402;28;20418;-73
2021/03/04 10:43:03;;;;;;;55.70;37.40;;;11.90;77.10;;;;;;5056177;28;20203;-74
2021/03/04 10:45:35;;;;;;;55.22;38.88;;;12.00;76.40;;;;;;5051814;28;20203;-72
2021/03/04 10:48:09;;;;;;;54.33;40.28;;;12.10;76.20;;;;;;5054322;28;20203;-70
2021/03/04 10:50:37;;;;;;;47.60;37.08;;;12.20;75.70;;;;;;5056950;28;20275;-72
2021/03/04 10:53:04;;;;;;;55.10;37.70;;;12.40;74.70;;;;;;5056045;28;20223;-71
2021/03/04 10:55:40;;;;;;;49.70;37.10;;;12.50;73.50;;;;;;5056826;28;20389;-75
2021/03/04 10:58:08;;;;;;;52.20;35.10;;;12.60;74.00;;;;;;5051130;28;20211;-73
2021/03/04 11:00:41;;;;;;;57.28;37.72;;;12.50;73.30;;;;;;5056433;28;20577;-72
2021/03/04 11:03:08;;;;;;;52.83;37.47;;;12.50;74.20;;;;;;5058723;28;20231;-73
2021/03/04 11:05:36;;;;;;;47.80;34.47;;;12.70;73.50;;;;;;5055161;28;20398;-71
2021/03/04 11:08:04;;;;;;;58.60;33.88;;;12.70;74.20;;;;;;5056755;28;20204;-74
2021/03/04 11:10:31;;;;;;;50.90;33.10;;;12.90;71.60;;;;;;5054552;28;20215;-71
2021/03/04 11:12:58;;;;;;;45.80;33.80;;;12.90;72.30;;;;;;5054524;28;20253;-73
2021/03/04 11:15:24;;;;;;;50.15;35.17;;;12.80;72.10;;;;;;5057140;28;20223;-72
2021/03/04 11:17:51;;;;;;;53.67;36.60;;;12.80;72.40;;;;;;5056015;28;20230;-72
2021/03/04 11:20:18;;;;;;;56.35;37.28;;;12.90;71.80;;;;;;5053732;28;20235;-74
2021/03/04 11:22:45;;;;;;;50.53;34.75;;;13.00;71.70;;;;;;5046557;28;20235;-71
2021/03/04 11:25:12;;;;;;;45.38;31.98;;;12.90;70.50;;;;;;5052189;28;20209;-72
2021/03/04 11:27:43;;;;;;;38.85;30.85;;;12.80;70.40;;;;;;5068099;28;20217;-72
2021/03/04 11:30:13;;;;;;;46.88;32.58;;;12.70;70.50;;;;;;5061792;28;20634;-72
2021/03/04 11:32:43;;;;;;;41.78;31.50;;;12.50;70.70;;;;;;5056175;28;20528;-71
2021/03/04 11:35:14;;;;;;;49.05;35.83;;;12.60;70.90;;;;;;5057011;28;20279;-72
2021/03/04 11:37:40;;;;;;;48.33;30.83;;;12.60;70.50;;;;;;5050235;28;20218;-72
2021/03/04 11:40:07;;;;;;;36.28;28.98;;;12.40;70.10;;;;;;5056543;28;20232;-73
2021/03/04 11:42:34;;;;;;;42.97;30.10;;;12.30;69.90;;;;;;5056323;28;20208;-73
2021/03/04 11:45:01;;;;;;;44.97;33.67;;;12.30;70.50;;;;;;5056806;28;20204;-73
2021/03/04 11:47:27;;;;;;;52.60;34.38;;;12.30;71.50;;;;;;5056548;28;20505;-72
2021/03/04 11:49:54;;;;;;;46.08;33.05;;;12.30;72.10;;;;;;5056127;28;20223;-73
2021/03/04 11:52:21;;;;;;;48.10;33.53;;;12.40;71.80;;;;;;5050271;28;20568;-71
2021/03/04 11:54:48;;;;;;;47.28;34.35;;;12.50;71.90;;;;;;5056438;28;20394;-73
2021/03/04 11:57:14;;;;;;;51.45;34.30;;;12.60;71.80;;;;;;5054226;28;20214;-73
2021/03/04 11:59:41;;;;;;;44.40;31.33;;;12.70;70.50;;;;;;5054979;28;20227;-71
2021/03/04 12:02:08;;;;;;;41.15;31.50;;;12.80;69.80;;;;;;5053324;28;20249;-70
2021/03/04 12:04:35;;;;;;;55.58;35.67;;;13.00;68.80;;;;;;5050010;28;20298;-72
2021/03/04 12:07:02;;;;;;;44.53;33.40;;;13.00;68.60;;;;;;5055998;28;20218;-72
2021/03/04 12:09:29;;;;;;;48.10;33.15;;;12.90;69.00;;;;;;5049579;28;20205;-72
2021/03/04 12:11:57;;;;;;;45.67;33.00;;;12.90;68.50;;;;;;5055902;28;20211;-75
2021/03/04 12:14:25;;;;;;;47.10;33.10;;;12.80;69.20;;;;;;5054151;28;20210;-74
2021/03/04 12:16:55;;;;;;;56.30;34.42;;;12.60;69.90;;;;;;5056810;28;20203;-73
2021/03/04 12:19:22;;;;;;;52.55;36.50;;;12.40;71.20;;;;;;5056216;28;20235;-72
2021/03/04 12:21:49;;;;;;;49.50;32.15;;;12.30;72.50;;;;;;5057145;28;20234;-72
2021/03/04 12:24:16;;;;;;;42.80;32.30;;;12.40;72.00;;;;;;5045858;28;20211;-74
2021/03/04 12:26:49;;;;;;;51.28;35.40;;;12.40;72.50;;;;;;5056362;28;20242;-72
2021/03/04 12:29:18;;;;;;;47.85;35.92;;;12.60;72.10;;;;;;5056008;28;20203;-72
2021/03/04 12:31:47;;;;;;;54.03;38.90;;;12.70;73.30;;;;;;5053924;28;20218;-72
2021/03/04 12:34:17;;;;;;;60.60;42.85;;;12.70;74.70;;;;;;5055557;28;20203;-72
2021/03/04 12:36:48;;;;;;;57.00;43.47;;;12.80;74.70;;;;;;5056689;28;20425;-72
2021/03/04 12:39:15;;;;;;;53.33;41.55;;;13.10;74.40;;;;;;5058800;28;20589;-72
2021/03/04 12:41:43;;;;;;;59.25;43.33;;;13.20;73.10;;;;;;5061274;28;20204;-71
2021/03/04 12:44:11;;;;;;;55.92;38.83;;;13.20;73.70;;;;;;5056585;28;20270;-72